Time;durP1;ratioP1;P1;durP2;ratioP2;P2;SDS_P1;SDS_P2;PMS_P1;PMS_P2;Temp;Humidity;BMP_temperature;BMP_pressure;BME280_temperature;BME280_humidity;BME280_pressure;Samples;Min_cycle;Max_cycle;Signal;HPM_P1;HPM_P2
2022/08/31 00:10:44;;;;;;;2.47;1.60;;;;;;;17.88;100.00;97929.84;18103782;32;20081;-61
2022/08/31 00:20:48;;;;;;;2.00;1.58;;;;;;;17.82;100.00;97948.31;18103758;32;20078;-60
2022/08/31 00:30:50;;;;;;;3.05;2.00;;;;;;;17.82;100.00;97939.31;18103253;32;20066;-60
2022/08/31 00:40:53;;;;;;;4.60;2.37;;;;;;;17.75;100.00;97926.88;18089884;32;20079;-60
2022/08/31 00:50:56;;;;;;;2.97;1.90;;;;;;;17.73;100.00;97918.19;18028134;32;20067;-60
2022/08/31 01:00:59;;;;;;;;;;;;;;;17.66;100.00;97919.72;18027932;32;20071;-60
2022/08/31 01:11:02;;;;;;;2.25;1.67;;;;;;;17.62;100.00;97916.78;18124997;32;19989;-60
2022/08/31 01:21:40;;;;;;;2.60;2.07;;;;;;;17.59;100.00;97910.03;18100221;32;20144;-60
2022/08/31 01:31:45;;;;;;;4.18;2.15;;;;;;;17.58;100.00;97893.94;18038380;32;20119;-60
2022/08/31 01:41:47;;;;;;;3.47;1.92;;;;;;;17.44;100.00;97903.00;18025216;32;20090;-60
2022/08/31 01:51:51;;;;;;;2.58;1.87;;;;;;;17.43;100.00;97897.84;18090223;32;20055;-60
2022/08/31 02:01:55;;;;;;;2.53;2.00;;;;;;;17.43;100.00;97895.09;18123104;32;20397;-60
2022/08/31 02:11:58;;;;;;;4.45;2.60;;;;;;;17.36;100.00;97895.56;18212467;32;20098;-60
2022/08/31 02:22:00;;;;;;;4.32;3.08;;;;;;;17.34;100.00;97910.63;18218462;32;20473;-60
2022/08/31 02:32:05;;;;;;;3.33;2.80;;;;;;;17.43;100.00;97906.84;18023372;32;20249;-60
2022/08/31 02:42:08;;;;;;;3.20;2.60;;;;;;;17.50;100.00;97900.13;18022433;32;20067;-61
2022/08/31 02:52:10;;;;;;;3.28;2.75;;;;;;;17.52;100.00;97911.59;18034849;32;20071;-61
2022/08/31 03:02:13;;;;;;;3.05;2.70;;;;;;;17.58;100.00;97900.22;18177881;32;20046;-61
2022/08/31 03:12:15;;;;;;;5.28;2.97;;;;;;;17.61;100.00;97913.25;18230128;32;20129;-61
2022/08/31 03:22:18;;;;;;;5.22;3.53;;;;;;;17.63;100.00;97899.28;18229767;32;20046;-60
2022/08/31 03:32:22;;;;;;;5.15;3.05;;;;;;;17.66;100.00;97889.66;18229484;32;20050;-60
2022/08/31 03:42:25;;;;;;;3.15;2.58;;;;;;;17.64;100.00;97875.47;18229037;32;20107;-60
2022/08/31 03:52:29;;;;;;;5.03;3.23;;;;;;;17.62;100.00;97881.25;18223789;32;20050;-60
2022/08/31 04:02:31;;;;;;;3.72;2.92;;;;;;;17.51;100.00;97883.41;18238488;32;20151;-61
2022/08/31 04:12:39;;;;;;;3.40;2.97;;;;;;;17.49;100.00;97898.53;18238198;32;20438;-60
2022/08/31 04:22:41;;;;;;;4.50;3.40;;;;;;;17.52;100.00;97898.72;18237693;32;20064;-60
2022/08/31 04:32:44;;;;;;;4.25;3.10;;;;;;;17.36;100.00;97901.03;18224126;32;20054;-60
2022/08/31 04:42:47;;;;;;;3.40;2.90;;;;;;;17.28;100.00;97915.41;18236613;32;20046;-60
2022/08/31 04:52:50;;;;;;;3.20;2.80;;;;;;;17.29;100.00;97919.75;18236590;32;20074;-61
2022/08/31 05:03:05;;;;;;;3.40;2.65;;;;;;;17.30;100.00;97929.56;18223356;32;20386;-60
2022/08/31 05:13:08;;;;;;;4.45;3.00;;;;;;;17.34;100.00;97935.25;18235473;32;20072;-60
2022/08/31 05:23:10;;;;;;;3.28;2.72;;;;;;;17.28;100.00;97954.47;18221454;32;20077;-60
2022/08/31 05:33:13;;;;;;;3.95;3.42;;;;;;;17.36;100.00;97960.31;18221306;32;20062;-60
2022/08/31 05:43:18;;;;;;;5.20;3.90;;;;;;;17.47;100.00;97964.44;18234188;32;20046;-61
2022/08/31 05:53:25;;;;;;;10.95;8.00;;;;;;;17.53;100.00;97978.81;18233917;32;20050;-60
2022/08/31 06:03:38;;;;;;;9.48;7.80;;;;;;;17.53;100.00;97984.28;18233222;32;20062;-61
2022/08/31 06:13:42;;;;;;;8.35;7.35;;;;;;;17.58;100.00;97984.97;18232780;32;20066;-61
2022/08/31 06:23:49;;;;;;;9.52;6.53;;;;;;;17.61;100.00;97989.81;18232279;32;20080;-61
2022/08/31 06:33:58;;;;;;;8.00;6.50;;;;;;;17.66;100.00;97983.41;18232270;32;20054;-61
2022/08/31 06:55:09;;;;;;;8.77;7.05;;;;;;;17.87;100.00;97996.63;18230507;32;20043;-62
2022/08/31 07:17:09;;;;;;;10.88;8.07;;;;;;;17.89;100.00;98010.81;18222513;32;20066;-61
2022/08/31 07:27:28;;;;;;;;;;;;;;;;;;;;;
2022/08/31 07:48:55;;;;;;;6.15;5.03;;;;;;;18.38;100.00;98028.25;18204187;32;20062;-60
2022/08/31 07:59:36;;;;;;;5.00;4.22;;;;;;;18.48;100.00;98040.06;18176558;32;20439;-61
2022/08/31 08:10:24;;;;;;;;;;;;;;;;;;;;;
2022/08/31 08:20:51;;;;;;;7.12;6.22;;;;;;;18.70;100.00;98067.41;18042425;32;20078;-61
2022/08/31 08:30:59;;;;;;;6.03;5.07;;;;;;;18.73;100.00;98085.97;18040980;32;20113;-60
2022/08/31 08:53:09;;;;;;;6.20;4.47;;;;;;;18.36;100.00;98100.84;18053199;32;20055;-60
2022/08/31 09:03:56;;;;;;;4.25;3.00;;;;;;;18.23;100.00;98108.00;18158735;32;20052;-60
2022/08/31 09:14:35;;;;;;;;;;;;;;;;;;;;;
2022/08/31 09:24:55;;;;;;;2.87;1.90;;;;;;;18.27;100.00;98100.81;18172029;32;20107;-60
2022/08/31 09:35:22;;;;;;;4.70;2.60;;;;;;;18.35;100.00;98104.72;18172085;32;20066;-61
2022/08/31 09:45:34;;;;;;;2.90;2.33;;;;;;;18.61;100.00;98092.03;18170819;32;20119;-60
2022/08/31 09:56:14;;;;;;;3.20;1.90;;;;;;;18.87;100.00;98098.75;18170525;32;20063;-60
2022/08/31 10:06:29;;;;;;;5.10;1.98;;;;;;;18.98;100.00;98089.19;18156926;32;20136;-60
2022/08/31 10:16:53;;;;;;;2.50;2.03;;;;;;;19.41;100.00;98077.56;18169393;32;20370;-60
2022/08/31 10:27:15;;;;;;;2.67;2.10;;;;;;;20.04;100.00;98076.59;18153720;32;20069;-60
2022/08/31 10:38:07;;;;;;;3.17;2.28;;;;;;;20.73;98.17;98072.97;18168721;32;20430;-60
2022/08/31 10:48:12;;;;;;;2.45;2.12;;;;;;;21.19;92.02;98072.50;18168494;32;20066;-61
2022/08/31 10:58:35;;;;;;;2.75;2.12;;;;;;;21.34;93.98;98066.44;18172530;32;20054;-61
2022/08/31 11:09:14;;;;;;;2.58;1.87;;;;;;;21.92;87.01;98055.72;18172516;32;20055;-60
2022/08/31 11:19:59;;;;;;;2.25;1.70;;;;;;;21.82;79.16;98047.88;18178392;32;20095;-60
2022/08/31 11:30:41;;;;;;;;;;;;;;;;;;;;;
2022/08/31 11:41:32;;;;;;;1.67;1.58;;;;;;;21.50;79.54;98015.22;18368044;32;20081;-61
2022/08/31 11:51:44;;;;;;;2.42;1.98;;;;;;;21.97;73.59;98022.50;18367325;32;20081;-61
2022/08/31 12:02:25;;;;;;;3.50;1.95;;;;;;;22.53;75.44;98012.28;18366616;32;20433;-60
2022/08/31 12:12:41;;;;;;;2.95;2.25;;;;;;;22.79;72.04;98009.22;18352458;32;20101;-60
2022/08/31 12:23:35;;;;;;;2.53;2.17;;;;;;;23.13;64.28;98002.50;18365384;32;20410;-60
2022/08/31 12:45:12;;;;;;;3.15;2.10;;;;;;;23.85;61.35;98029.53;18363549;32;20077;-60
2022/08/31 12:56:25;;;;;;;2.20;1.75;;;;;;;24.36;54.42;98012.44;18362800;32;20070;-60
2022/08/31 13:06:47;;;;;;;;;;;;;;;;;;;;;
2022/08/31 13:17:16;;;;;;;2.87;1.40;;;;;;;26.11;52.72;97985.75;18287727;32;20147;-61
2022/08/31 13:27:26;;;;;;;1.55;1.45;;;;;;;25.32;52.70;97973.72;18297392;32;20381;-61
2022/08/31 13:37:42;;;;;;;3.47;1.40;;;;;;;24.37;60.13;97980.87;18296857;32;20415;-60
2022/08/31 13:47:53;;;;;;;1.58;1.20;;;;;;;25.93;49.32;97952.13;18289771;32;20123;-61
2022/08/31 13:58:06;;;;;;;1.40;1.27;;;;;;;25.07;52.80;97948.25;18108047;32;20481;-60
2022/08/31 14:08:23;;;;;;;1.90;1.70;;;;;;;24.69;50.87;97950.53;18109836;32;20101;-60
2022/08/31 14:18:41;;;;;;;3.62;1.55;;;;;;;23.89;51.05;97948.78;18169338;32;20185;-61
2022/08/31 14:28:52;;;;;;;1.67;1.30;;;;;;;23.85;54.75;97945.88;18195127;32;20062;-61
2022/08/31 14:38:57;;;;;;;1.90;1.60;;;;;;;23.47;55.68;97941.63;18282308;32;20480;-60
2022/08/31 14:49:01;;;;;;;2.90;1.55;;;;;;;23.25;57.87;97937.44;18293936;32;20126;-60
2022/08/31 14:59:11;;;;;;;3.20;1.52;;;;;;;22.98;54.92;97926.75;18280924;32;20061;-61
2022/08/31 15:09:15;;;;;;;2.03;1.58;;;;;;;22.93;56.48;97926.97;18302626;32;20070;-60
2022/08/31 15:19:21;;;;;;;5.00;2.15;;;;;;;22.62;56.10;97922.84;18356648;32;20092;-60
2022/08/31 15:29:28;;;;;;;1.77;1.42;;;;;;;22.31;60.66;97917.81;18356472;32;20070;-61
2022/08/31 15:39:35;;;;;;;2.55;2.00;;;;;;;22.34;60.27;97904.22;18356017;32;20065;-61
2022/08/31 15:49:39;;;;;;;2.62;1.75;;;;;;;22.30;57.78;97911.53;18366589;32;20518;-61
2022/08/31 15:59:42;;;;;;;2.37;1.85;;;;;;;22.00;57.29;97892.41;18367220;32;20103;-61
2022/08/31 16:09:45;;;;;;;3.17;2.10;;;;;;;21.85;56.27;97890.31;18353286;32;20405;-61
2022/08/31 16:19:49;;;;;;;3.30;2.03;;;;;;;21.85;58.77;97873.78;18365563;32;20102;-61
2022/08/31 16:29:52;;;;;;;2.22;1.80;;;;;;;21.89;59.55;97865.66;18365398;32;20468;-60
2022/08/31 16:39:55;;;;;;;3.42;1.90;;;;;;;21.65;58.63;97868.00;18364292;32;20053;-61
2022/08/31 16:50:02;;;;;;;;;;;;;;;21.41;58.68;97862.38;18196463;32;20050;-61
2022/08/31 17:00:06;;;;;;;4.25;2.40;;;;;;;21.16;61.54;97867.75;18159662;32;19946;-61
2022/08/31 17:10:10;;;;;;;3.72;2.00;;;;;;;20.98;62.70;97878.03;18172608;32;20088;-61
2022/08/31 17:20:15;;;;;;;3.00;1.98;;;;;;;20.81;63.08;97865.22;18146489;32;20051;-61
2022/08/31 17:30:21;;;;;;;4.45;2.33;;;;;;;20.53;66.36;97871.16;18158095;32;20363;-61
2022/08/31 17:40:26;;;;;;;4.40;2.67;;;;;;;20.29;68.91;97872.56;18171548;32;20058;-61
2022/08/31 17:50:29;;;;;;;3.50;2.30;;;;;;;19.99;71.86;97874.44;18157356;32;20046;-61
2022/08/31 18:00:32;;;;;;;2.97;2.60;;;;;;;19.64;74.06;97875.28;18144619;32;20101;-61
2022/08/31 18:10:35;;;;;;;2.43;2.20;;;;;;;19.21;76.43;97870.66;18169836;32;20524;-61
2022/08/31 18:20:38;;;;;;;4.20;2.30;;;;;;;18.87;80.35;97874.91;18169682;32;20042;-61
2022/08/31 18:30:42;;;;;;;2.95;2.30;;;;;;;18.49;82.08;97891.88;18143883;32;20039;-61
2022/08/31 18:51:11;;;;;;;5.70;2.53;;;;;;;17.83;85.50;97908.91;18168557;32;20070;-61
2022/08/31 19:01:17;;;;;;;2.85;2.15;;;;;;;17.53;86.90;97927.69;18167735;32;20103;-61
2022/08/31 19:11:23;;;;;;;3.05;2.58;;;;;;;17.31;88.86;97917.53;18154204;32;20095;-61
2022/08/31 19:21:34;;;;;;;3.05;2.70;;;;;;;17.11;90.08;97907.84;18174183;32;20077;-61
2022/08/31 19:31:39;;;;;;;3.65;2.17;;;;;;;16.92;91.39;97914.28;18177933;32;20043;-61
2022/08/31 19:41:43;;;;;;;3.65;2.50;;;;;;;16.71;92.27;97902.12;18043898;32;20529;-61
2022/08/31 19:51:57;;;;;;;3.47;2.62;;;;;;;16.52;93.37;97911.22;18043606;32;20242;-61
2022/08/31 20:02:04;;;;;;;3.35;2.33;;;;;;;16.33;94.22;97916.75;18043033;32;20071;-61
2022/08/31 20:12:07;;;;;;;2.85;2.42;;;;;;;16.20;95.08;97906.66;18115191;32;20107;-61
2022/08/31 20:22:12;;;;;;;7.17;2.97;;;;;;;16.09;96.06;97895.91;18091348;32;20071;-61
2022/08/31 20:32:17;;;;;;;4.20;2.83;;;;;;;15.97;96.89;97905.72;18103603;32;20086;-61
2022/08/31 20:42:24;;;;;;;4.68;2.50;;;;;;;15.86;97.75;97908.59;18103273;32;20443;-61
2022/08/31 20:52:33;;;;;;;3.17;2.60;;;;;;;15.72;97.85;97911.25;18135804;32;20069;-61
2022/08/31 21:02:38;;;;;;;4.07;3.28;;;;;;;15.57;98.70;97904.13;18160122;32;20084;-61
2022/08/31 21:12:41;;;;;;;4.60;2.65;;;;;;;15.43;99.43;97908.72;18172630;32;20048;-61
2022/08/31 21:22:43;;;;;;;3.17;2.60;;;;;;;15.31;100.00;97911.09;18172428;32;20054;-61
2022/08/31 21:32:46;;;;;;;3.53;2.72;;;;;;;15.25;100.00;97913.06;18133652;32;20069;-61
2022/08/31 21:42:49;;;;;;;3.15;2.45;;;;;;;15.13;100.00;97899.06;18037566;32;20117;-60
2022/08/31 21:52:51;;;;;;;3.55;3.15;;;;;;;15.08;100.00;97897.22;18013393;32;20401;-61
2022/08/31 22:02:59;;;;;;;4.07;2.78;;;;;;;15.01;100.00;97903.03;18037330;32;20048;-61
2022/08/31 22:13:04;;;;;;;3.10;2.78;;;;;;;14.90;100.00;97896.13;18056835;32;20054;-61
2022/08/31 22:23:08;;;;;;;3.10;2.75;;;;;;;14.80;100.00;97885.34;18169705;32;20126;-60
2022/08/31 22:33:11;;;;;;;;;;;;;;;14.74;100.00;97880.00;18155706;32;20091;-61
2022/08/31 22:43:15;;;;;;;3.10;2.80;;;;;;;14.66;100.00;97882.53;18155625;32;20303;-61
2022/08/31 22:53:17;;;;;;;4.93;3.03;;;;;;;14.62;100.00;97884.19;18171963;32;20469;-61
2022/08/31 23:03:20;;;;;;;4.78;3.12;;;;;;;14.54;100.00;97872.06;18179048;32;20417;-60
2022/08/31 23:13:50;;;;;;;5.57;3.10;;;;;;;14.48;100.00;97879.44;18165075;32;20446;-61
2022/08/31 23:23:45;;;;;;;4.50;3.30;;;;;;;14.39;100.00;97873.06;18178101;32;20059;-61
2022/08/31 23:33:52;;;;;;;4.32;2.65;;;;;;;14.35;100.00;97878.25;18178099;32;20099;-61
2022/08/31 23:43:56;;;;;;;3.50;2.70;;;;;;;14.29;100.00;97870.44;18177333;32;20038;-60
2022/08/31 23:53:59;;;;;;;4.65;3.12;;;;;;;14.22;100.00;97858.00;18177320;32;20051;-61
